»·PEaware :: GPD250 KSJC-KTPH

GPD250 :: KSJC-KTPH

FLIGHT INFORMATION

Flight Status: Arrived
Operator: Unknown
More flights by this operator :: More flights under this callsign
Pilot: Anonymous 13363 (13363)
Aircraft: PILATUS PC-12 EAGLE
(PC12)
More flights by this aircraft type
Origin: KSJC Mineta San Jose Intl
United States
Destination: KTPH Tonopah
United States
More flights between these airports :: More routes between these airports
Route: +SUNOL9 LIN J84 SONNY OAL
File this flight plan on PilotEdge
Remarks:
Altitude:
(Current/Filed)
27,000ft
Speed:
(Current/Filed)
276kts
Departed: 03-Feb-18 07:09 PM
Arrived: 03-Feb-18 08:14 PM
Distance/Time
Traveled:
233nm/1:04
Distance/Time
To Go:
Arrived

Flight Plot

Page will automatically refresh every two minutes.

Flight plan parsing failed; only flown route is shown


Map Options




Map Legend


Flown Route
Filed Route
Departure Airport
Arrival Airport
Navaid (VOR, NDB)
Fix

Horizontal Profiles

Position Reports

Time Latitude Longitude Heading Altitude Ground
Speed
03-Feb-18 18:55 37.359053 -121.930678 230 46ft 0kts
03-Feb-18 18:56 37.359053 -121.930678 230 46ft 0kts
03-Feb-18 18:57 37.359053 -121.930678 230 46ft 0kts
03-Feb-18 18:58 37.359053 -121.930678 230 46ft 0kts
03-Feb-18 18:59 37.359053 -121.930678 230 46ft 0kts
03-Feb-18 19:00 37.359053 -121.930678 230 46ft 0kts
03-Feb-18 19:01 37.359053 -121.930678 230 46ft 0kts
03-Feb-18 19:02 37.359053 -121.930678 230 46ft 0kts
03-Feb-18 19:03 37.359053 -121.930678 230 46ft 0kts
03-Feb-18 19:04 37.359053 -121.930678 230 46ft 0kts
03-Feb-18 19:05 37.359053 -121.930678 230 46ft 0kts
03-Feb-18 19:06 37.359053 -121.930678 230 46ft 0kts
03-Feb-18 19:07 37.359053 -121.930678 230 46ft 0kts
03-Feb-18 19:08 37.359053 -121.930678 230 46ft 0kts
03-Feb-18 19:09 37.358735 -121.930717 112 46ft 10kts
03-Feb-18 19:10 37.358014 -121.928974 138 46ft 9kts
03-Feb-18 19:11 37.355218 -121.925985 148 46ft 15kts
03-Feb-18 19:12 37.354041 -121.922203 139 46ft 14kts
03-Feb-18 19:13 37.352231 -121.919729 52 46ft 0kts
03-Feb-18 19:14 37.354041 -121.920403 319 46ft 11kts
03-Feb-18 19:15 37.370452 -121.938555 311 947ft 77kts
03-Feb-18 19:16 37.389003 -121.962305 306 2401ft 103kts
03-Feb-18 19:17 37.412854 -121.978398 34 3809ft 125kts
03-Feb-18 19:18 37.433629 -121.939917 55 5025ft 139kts
03-Feb-18 19:19 37.455462 -121.899202 46 6226ft 142kts
03-Feb-18 19:20 37.491234 -121.877766 23 7422ft 145kts
03-Feb-18 19:21 37.528646 -121.856448 23 9311ft 145kts
03-Feb-18 19:22 37.562842 -121.836544 24 11494ft 139kts
03-Feb-18 19:23 37.598169 -121.815825 25 13425ft 145kts
03-Feb-18 19:24 37.625293 -121.778580 51 15288ft 151kts
03-Feb-18 19:25 37.650660 -121.735549 52 17224ft 157kts
03-Feb-18 19:26 37.676933 -121.690796 54 19132ft 164kts
03-Feb-18 19:27 37.705204 -121.642468 55 20831ft 179kts
03-Feb-18 19:28 37.735701 -121.590325 54 22442ft 191kts
03-Feb-18 19:29 37.767631 -121.535750 51 24014ft 195kts
03-Feb-18 19:30 37.800491 -121.480483 51 25388ft 202kts
03-Feb-18 19:31 37.834285 -121.422560 52 26647ft 208kts
03-Feb-18 19:32 37.870657 -121.359974 52 27137ft 245kts
03-Feb-18 19:33 37.912934 -121.286797 53 27131ft 275kts
03-Feb-18 19:34 37.959401 -121.206248 53 27130ft 288kts
03-Feb-18 19:35 38.007164 -121.123442 53 27129ft 294kts
03-Feb-18 19:36 38.055348 -121.039752 53 27129ft 296kts
03-Feb-18 19:37 38.086231 -120.944999 77 27154ft 296kts
03-Feb-18 19:38 38.104165 -120.844943 77 27155ft 297kts
03-Feb-18 19:39 38.121957 -120.744248 77 27155ft 298kts
03-Feb-18 19:40 38.140053 -120.641461 77 27156ft 298kts
03-Feb-18 19:41 38.157976 -120.539128 77 27204ft 297kts
03-Feb-18 19:42 38.175808 -120.436803 77 27211ft 298kts
03-Feb-18 19:43 38.193443 -120.335024 78 27209ft 299kts
03-Feb-18 19:44 38.210849 -120.233813 78 27208ft 298kts
03-Feb-18 19:45 38.228424 -120.131231 78 27208ft 297kts
03-Feb-18 19:46 38.245937 -120.028428 78 27209ft 298kts
03-Feb-18 19:48 38.263279 -119.926028 78 27321ft 295kts
03-Feb-18 19:49 38.280452 -119.824125 78 27372ft 297kts
03-Feb-18 19:50 38.297726 -119.720977 78 27372ft 299kts
03-Feb-18 19:51 38.314945 -119.617555 78 27373ft 299kts
03-Feb-18 19:52 38.332176 -119.513488 78 27373ft 300kts
03-Feb-18 19:53 38.323218 -119.410115 104 27373ft 297kts
03-Feb-18 19:54 38.304804 -119.311420 105 27370ft 297kts
03-Feb-18 19:55 38.285315 -119.207951 105 27370ft 297kts
03-Feb-18 19:56 38.266263 -119.107120 105 27371ft 297kts
03-Feb-18 19:57 38.262605 -119.087823 105 27371ft 297kts
03-Feb-18 19:58 38.243193 -118.985696 105 27371ft 297kts
03-Feb-18 19:59 38.223725 -118.883774 105 27372ft 297kts
03-Feb-18 19:59 38.207385 -118.798629 105 27372ft 297kts
03-Feb-18 20:00 38.187827 -118.697181 105 27424ft 296kts
03-Feb-18 20:02 38.164801 -118.578409 105 27427ft 298kts
03-Feb-18 20:03 38.144883 -118.476234 105 27427ft 298kts
03-Feb-18 20:03 38.128160 -118.390830 105 27428ft 299kts
03-Feb-18 20:04 38.108733 -118.292061 106 27423ft 299kts
03-Feb-18 20:06 38.085188 -118.173015 106 27394ft 299kts
03-Feb-18 20:06 38.068148 -118.087299 106 27317ft 300kts
03-Feb-18 20:07 38.047353 -117.983355 106 26672ft 315kts
03-Feb-18 20:08 38.025456 -117.874371 105 25673ft 322kts
03-Feb-18 20:09 38.005724 -117.763924 90 24682ft 320kts
03-Feb-18 20:10 38.013921 -117.652361 84 22968ft 318kts
03-Feb-18 20:11 38.023211 -117.542234 86 20967ft 310kts
03-Feb-18 20:12 38.031991 -117.437296 85 18943ft 286kts
03-Feb-18 20:13 38.039137 -117.347538 81 16856ft 242kts
03-Feb-18 20:14 38.045783 -117.266435 80 14685ft 228kts
03-Feb-18 20:15 38.051638 -117.183828 90 11767ft 247kts
03-Feb-18 20:16 38.005475 -117.122730 160 8956ft 252kts
03-Feb-18 20:17 37.993344 -117.067293 17 7688ft 176kts
03-Feb-18 20:18 38.029947 -117.079172 340 6205ft 99kts
03-Feb-18 20:19 38.053097 -117.087804 346 5406ft 55kts
03-Feb-18 20:20 38.058625 -117.092397 345 5412ft 19kts
03-Feb-18 20:21 38.064496 -117.094473 296 5422ft 14kts
03-Feb-18 20:22 38.063493 -117.096102 164 5423ft 0kts
03-Feb-18 20:23 38.063493 -117.096102 164 5423ft 0kts
03-Feb-18 20:24 38.063493 -117.096102 164 5423ft 0kts
03-Feb-18 20:25 38.063493 -117.096102 164 5423ft 0kts
03-Feb-18 20:26 38.063493 -117.096102 164 5423ft 0kts

Navigation Log

Ident Type
Flight plan parsing failed, navigation log unavailable